createdAt,value
2017-09-09T00:01:10.695Z,1.77
2017-09-09T00:03:38.191Z,1.67
2017-09-09T00:06:05.724Z,3.50
2017-09-09T00:08:33.992Z,3.13
2017-09-09T00:11:01.511Z,1.57
2017-09-09T00:13:29.049Z,1.63
2017-09-09T00:15:56.559Z,3.07
2017-09-09T00:18:25.600Z,2.03
2017-09-09T00:20:53.109Z,2.07
2017-09-09T00:23:21.375Z,3.27
2017-09-09T00:25:49.673Z,1.73
2017-09-09T00:28:17.951Z,2.33
2017-09-09T00:30:46.258Z,4.80
2017-09-09T00:33:13.770Z,5.87
2017-09-09T00:35:42.040Z,6.87
2017-09-09T00:38:09.560Z,2.57
2017-09-09T00:40:37.079Z,2.20
2017-09-09T00:43:05.497Z,2.53
2017-09-09T00:45:33.010Z,2.27
2017-09-09T00:48:01.286Z,4.43
2017-09-09T00:50:29.589Z,2.13
2017-09-09T00:52:57.099Z,3.20
2017-09-09T00:55:24.726Z,2.00
2017-09-09T00:57:52.224Z,5.13
2017-09-09T01:00:19.754Z,2.00
2017-09-09T01:02:47.303Z,2.50
2017-09-09T01:05:14.858Z,8.97
2017-09-09T01:07:42.383Z,2.20
2017-09-09T01:10:10.647Z,3.23
2017-09-09T01:12:38.916Z,7.00
2017-09-09T01:15:07.246Z,2.60
2017-09-09T01:17:34.768Z,2.67
2017-09-09T01:20:03.032Z,2.60
2017-09-09T01:22:31.321Z,3.43
2017-09-09T01:24:59.588Z,2.60
2017-09-09T01:27:27.933Z,2.80
2017-09-09T01:29:55.450Z,3.63
2017-09-09T01:32:22.962Z,3.40
2017-09-09T01:34:51.264Z,3.10
2017-09-09T01:37:19.547Z,5.13
2017-09-09T01:39:47.831Z,8.27
2017-09-09T01:42:15.330Z,2.90
2017-09-09T01:44:42.847Z,2.77
2017-09-09T01:47:10.357Z,4.60
2017-09-09T01:49:37.900Z,6.73
2017-09-09T01:52:05.418Z,4.00
2017-09-09T01:54:32.972Z,2.80
2017-09-09T01:57:01.240Z,4.30
2017-09-09T01:59:29.508Z,3.40
2017-09-09T02:01:57.796Z,2.93
2017-09-09T02:04:26.098Z,3.27
2017-09-09T02:06:53.611Z,3.30
2017-09-09T02:09:21.876Z,3.90
2017-09-09T02:11:49.409Z,4.23
2017-09-09T02:14:16.924Z,3.67
2017-09-09T02:16:45.225Z,4.27
2017-09-09T02:19:12.751Z,11.07
2017-09-09T02:21:40.268Z,8.50
2017-09-09T02:24:07.787Z,8.83
2017-09-09T02:26:35.303Z,7.50
2017-09-09T02:29:02.841Z,4.27
2017-09-09T02:31:30.359Z,3.60
2017-09-09T02:33:57.865Z,3.67
2017-09-09T02:36:25.391Z,7.10
2017-09-09T02:38:52.888Z,7.17
2017-09-09T02:41:20.407Z,4.63
2017-09-09T02:43:47.911Z,4.37
2017-09-09T02:46:15.456Z,6.13
2017-09-09T02:48:42.968Z,4.57
2017-09-09T02:51:11.273Z,3.70
2017-09-09T02:53:38.780Z,3.70
2017-09-09T02:56:07.051Z,3.20
2017-09-09T02:58:34.567Z,3.00
2017-09-09T03:01:02.069Z,5.13
2017-09-09T03:03:30.374Z,5.30
2017-09-09T03:05:57.877Z,5.77
2017-09-09T03:08:25.517Z,3.10
2017-09-09T03:10:53.016Z,3.27
2017-09-09T03:13:21.313Z,8.10
2017-09-09T03:15:49.575Z,3.13
2017-09-09T03:18:17.891Z,3.67
2017-09-09T03:20:45.472Z,4.80
2017-09-09T03:23:13.009Z,6.63
2017-09-09T03:25:40.525Z,3.77
2017-09-09T03:28:08.047Z,6.40
2017-09-09T03:30:36.331Z,3.70
2017-09-09T03:33:03.836Z,4.97
2017-09-09T03:35:31.377Z,4.57
2017-09-09T03:37:58.902Z,6.83
2017-09-09T03:40:27.220Z,9.37
2017-09-09T03:42:54.724Z,4.30
2017-09-09T03:45:23.046Z,4.70
2017-09-09T03:47:50.579Z,3.80
2017-09-09T03:50:18.861Z,8.60
2017-09-09T03:52:46.402Z,7.83
2017-09-09T03:55:14.668Z,7.30
2017-09-09T03:57:42.206Z,4.40
2017-09-09T04:00:09.704Z,4.87
2017-09-09T04:02:38.010Z,4.33
2017-09-09T04:05:05.513Z,3.40
2017-09-09T04:07:33.816Z,3.37
2017-09-09T04:10:02.085Z,3.53
2017-09-09T04:12:29.579Z,7.93
2017-09-09T04:14:57.095Z,3.40
2017-09-09T04:17:24.597Z,6.80
2017-09-09T04:19:52.120Z,5.37
2017-09-09T04:22:20.386Z,3.33
2017-09-09T04:24:48.675Z,5.60
2017-09-09T04:27:16.177Z,3.23
2017-09-09T04:29:43.679Z,9.03
2017-09-09T04:32:11.963Z,4.90
2017-09-09T04:34:40.246Z,7.33
2017-09-09T04:37:08.532Z,3.53
2017-09-09T04:39:36.027Z,16.73
2017-09-09T04:42:03.543Z,3.27
2017-09-09T04:44:31.049Z,3.93
2017-09-09T04:46:58.590Z,4.70
2017-09-09T04:49:26.088Z,3.80
2017-09-09T04:51:54.374Z,4.20
2017-09-09T04:54:22.682Z,5.47
2017-09-09T04:56:50.210Z,5.67
2017-09-09T04:59:18.491Z,3.67
2017-09-09T05:01:46.751Z,5.33
2017-09-09T05:04:14.273Z,4.50
2017-09-09T05:06:41.785Z,4.93
2017-09-09T05:09:10.099Z,3.10
2017-09-09T05:11:37.604Z,6.07
2017-09-09T05:14:05.867Z,2.70
2017-09-09T05:16:33.392Z,5.47
2017-09-09T05:19:00.974Z,3.73
2017-09-09T05:21:28.510Z,4.37
2017-09-09T05:23:56.021Z,4.53
2017-09-09T05:26:24.319Z,8.73
2017-09-09T05:28:51.815Z,4.23
2017-09-09T05:31:19.326Z,3.90
2017-09-09T05:33:47.626Z,4.70
2017-09-09T05:36:15.138Z,4.67
2017-09-09T05:38:42.669Z,4.53
2017-09-09T05:41:10.177Z,6.47
2017-09-09T05:43:38.473Z,5.93
2017-09-09T05:46:05.990Z,8.10
2017-09-09T05:48:33.527Z,7.00
2017-09-09T05:51:01.032Z,5.30
2017-09-09T05:53:29.328Z,6.77
2017-09-09T05:55:56.823Z,5.43
2017-09-09T05:58:24.342Z,18.10
2017-09-09T06:00:51.890Z,8.27
2017-09-09T06:03:19.448Z,8.63
2017-09-09T06:05:47.019Z,7.40
2017-09-09T06:08:14.538Z,2.80
2017-09-09T06:10:42.072Z,3.50
2017-09-09T06:13:09.579Z,2.20
2017-09-09T06:15:37.163Z,2.53
2017-09-09T06:18:04.702Z,1.60
2017-09-09T06:20:32.940Z,4.93
2017-09-09T06:23:00.468Z,4.70
2017-09-09T06:25:27.987Z,3.10
2017-09-09T06:27:55.572Z,3.00
2017-09-09T06:30:23.110Z,3.10
2017-09-09T06:32:50.612Z,4.87
2017-09-09T06:35:18.150Z,3.47
2017-09-09T06:37:45.665Z,3.43
2017-09-09T06:40:13.959Z,5.90
2017-09-09T06:42:41.455Z,6.27
2017-09-09T06:45:09.797Z,4.50
2017-09-09T06:47:37.493Z,5.03
2017-09-09T06:50:05.006Z,4.40
2017-09-09T06:52:33.300Z,5.70
2017-09-09T06:55:00.800Z,5.10
2017-09-09T06:57:28.340Z,5.37
2017-09-09T06:59:55.844Z,5.60
2017-09-09T07:02:24.127Z,6.23
2017-09-09T07:04:52.429Z,6.10
2017-09-09T07:07:19.955Z,8.63
2017-09-09T07:09:48.258Z,7.87
2017-09-09T07:12:15.841Z,8.23
2017-09-09T07:14:43.389Z,8.17
2017-09-09T07:17:10.893Z,9.03
2017-09-09T07:19:38.418Z,9.27
2017-09-09T07:22:05.952Z,11.27
2017-09-09T07:24:33.459Z,11.53
2017-09-09T07:27:00.979Z,9.43
2017-09-09T07:29:28.484Z,15.10
2017-09-09T07:31:56.011Z,9.57
2017-09-09T07:34:23.530Z,9.60
2017-09-09T07:36:51.790Z,9.80
2017-09-09T07:39:20.079Z,11.93
2017-09-09T07:41:48.359Z,10.60
2017-09-09T07:44:16.647Z,11.30
2017-09-09T07:46:44.146Z,10.00
2017-09-09T07:49:11.704Z,10.80
2017-09-09T07:51:39.217Z,9.37
2017-09-09T07:54:06.745Z,8.03
2017-09-09T07:56:34.273Z,9.13
2017-09-09T07:59:01.786Z,5.37
2017-09-09T08:01:30.068Z,4.60
2017-09-09T08:03:58.335Z,5.30
2017-09-09T08:06:25.881Z,4.37
2017-09-09T08:08:54.204Z,3.97
2017-09-09T08:11:22.012Z,4.80
2017-09-09T08:13:49.526Z,4.30
2017-09-09T08:16:17.137Z,4.83
2017-09-09T08:18:44.677Z,2.90
2017-09-09T08:21:12.171Z,3.30
2017-09-09T08:23:40.486Z,2.27
2017-09-09T08:26:08.041Z,4.20
2017-09-09T08:28:35.543Z,3.53
2017-09-09T08:31:03.064Z,2.80
2017-09-09T08:33:30.564Z,2.37
2017-09-09T08:35:58.382Z,2.70
2017-09-09T08:38:26.812Z,4.23
2017-09-09T08:40:54.534Z,2.03
2017-09-09T08:43:22.054Z,2.43
2017-09-09T08:45:49.565Z,2.33
2017-09-09T08:48:17.129Z,2.80
2017-09-09T08:50:44.623Z,1.83
2017-09-09T08:53:12.925Z,2.47
2017-09-09T08:55:40.419Z,2.60
2017-09-09T08:58:08.154Z,1.97
2017-09-09T09:00:36.598Z,2.37
2017-09-09T09:03:04.865Z,2.90
2017-09-09T09:05:33.317Z,2.73
2017-09-09T09:08:00.831Z,3.50
2017-09-09T09:10:28.405Z,3.00
2017-09-09T09:12:55.903Z,3.77
2017-09-09T09:15:23.423Z,5.27
2017-09-09T09:17:50.921Z,3.60
2017-09-09T09:20:19.226Z,3.93
2017-09-09T09:22:46.728Z,3.30
2017-09-09T09:25:14.528Z,3.30
2017-09-09T09:27:42.047Z,3.47
2017-09-09T09:30:09.555Z,4.20
2017-09-09T09:32:37.843Z,3.20
2017-09-09T09:35:06.130Z,3.43
2017-09-09T09:37:33.662Z,2.67
2017-09-09T09:40:01.942Z,2.20
2017-09-09T09:42:30.260Z,1.73
2017-09-09T09:44:57.774Z,2.10
2017-09-09T09:47:26.054Z,2.33
2017-09-09T09:49:54.362Z,2.10
2017-09-09T09:52:21.873Z,1.93
2017-09-09T09:54:49.387Z,2.03
2017-09-09T09:57:16.898Z,1.70
2017-09-09T09:59:45.211Z,2.17
2017-09-09T10:02:12.711Z,2.80
2017-09-09T10:04:40.238Z,3.73
2017-09-09T10:07:07.775Z,3.00
2017-09-09T10:09:35.312Z,2.17
2017-09-09T10:12:03.595Z,2.17
2017-09-09T10:14:31.867Z,3.63
2017-09-09T10:17:00.174Z,2.00
2017-09-09T10:19:27.668Z,2.60
2017-09-09T10:21:55.194Z,4.13
2017-09-09T10:24:39.378Z,2.20
2017-09-09T10:27:06.899Z,1.83
2017-09-09T10:29:34.422Z,2.67
2017-09-09T10:32:02.723Z,2.37
2017-09-09T10:34:30.238Z,2.07
2017-09-09T10:36:57.786Z,2.00
2017-09-09T10:39:25.292Z,1.90
2017-09-09T10:41:52.909Z,1.80
2017-09-09T10:44:20.431Z,1.83
2017-09-09T10:46:48.696Z,2.00
2017-09-09T10:49:17.027Z,2.47
2017-09-09T10:51:44.528Z,4.50
2017-09-09T10:54:12.796Z,2.47
2017-09-09T10:56:40.319Z,2.10
2017-09-09T10:59:07.811Z,2.60
2017-09-09T11:01:35.327Z,1.63
2017-09-09T11:04:02.828Z,2.30
2017-09-09T11:06:30.377Z,1.70
2017-09-09T11:08:57.891Z,2.73
2017-09-09T11:11:25.392Z,2.43
2017-09-09T11:13:52.935Z,1.80
2017-09-09T11:16:20.474Z,1.40
2017-09-09T11:18:47.980Z,1.53
2017-09-09T11:21:15.497Z,1.10
2017-09-09T11:23:43.052Z,15.57
2017-09-09T11:26:10.582Z,1.13
2017-09-09T11:28:38.861Z,1.90
2017-09-09T11:31:06.429Z,1.80
2017-09-09T11:33:33.927Z,1.20
2017-09-09T11:36:01.452Z,2.80
2017-09-09T11:38:30.627Z,1.33
2017-09-09T11:40:58.936Z,5.03
2017-09-09T11:43:26.496Z,1.27
2017-09-09T11:45:54.056Z,1.57
2017-09-09T11:48:21.596Z,3.23
2017-09-09T11:50:49.110Z,1.30
2017-09-09T11:53:17.414Z,1.00
2017-09-09T11:55:44.935Z,1.17
2017-09-09T11:58:12.467Z,1.17
2017-09-09T12:00:39.986Z,1.30
2017-09-09T12:03:07.488Z,1.23
2017-09-09T12:05:35.013Z,1.30
2017-09-09T12:08:02.515Z,2.07
2017-09-09T12:10:30.055Z,1.10
2017-09-09T12:12:57.556Z,1.90
2017-09-09T12:15:25.081Z,3.10
2017-09-09T12:17:52.586Z,2.83
2017-09-09T12:20:20.116Z,1.30
2017-09-09T12:22:47.621Z,0.90
2017-09-09T12:25:15.883Z,1.27
2017-09-09T12:27:43.418Z,1.33
2017-09-09T12:30:10.934Z,1.53
2017-09-09T12:32:38.451Z,2.40
2017-09-09T12:35:05.972Z,1.47
2017-09-09T12:37:33.495Z,2.23
2017-09-09T12:40:01.755Z,1.53
2017-09-09T12:42:29.298Z,1.00
2017-09-09T12:44:56.800Z,1.73
2017-09-09T12:47:24.380Z,2.13
2017-09-09T12:49:51.919Z,1.20
2017-09-09T12:52:19.420Z,1.37
2017-09-09T12:54:46.955Z,1.33
2017-09-09T12:57:14.464Z,1.17
2017-09-09T12:59:41.980Z,0.90
2017-09-09T13:02:09.486Z,0.80
2017-09-09T13:04:37.767Z,0.90
2017-09-09T13:07:06.049Z,1.57
2017-09-09T13:09:34.362Z,1.10
2017-09-09T13:12:01.923Z,2.10
2017-09-09T13:14:29.436Z,6.93
2017-09-09T13:16:57.735Z,1.30
2017-09-09T13:19:25.248Z,4.00
2017-09-09T13:21:52.786Z,1.67
2017-09-09T13:24:20.289Z,3.73
2017-09-09T13:26:47.835Z,1.47
2017-09-09T13:29:15.345Z,1.40
2017-09-09T13:31:42.862Z,6.20
2017-09-09T13:34:10.379Z,1.00
2017-09-09T13:36:37.871Z,1.10
2017-09-09T13:39:06.164Z,1.53
2017-09-09T13:41:34.450Z,2.10
2017-09-09T13:44:01.954Z,1.67
2017-09-09T13:46:29.484Z,1.43
2017-09-09T13:48:56.994Z,2.20
2017-09-09T13:51:24.547Z,2.13
2017-09-09T13:53:52.066Z,1.40
2017-09-09T13:56:19.585Z,2.60
2017-09-09T13:58:47.886Z,1.30
2017-09-09T14:01:15.389Z,1.30
2017-09-09T14:03:42.930Z,1.20
2017-09-09T14:06:10.447Z,2.73
2017-09-09T14:08:37.986Z,1.63
2017-09-09T14:11:06.266Z,2.03
2017-09-09T14:13:34.555Z,1.20
2017-09-09T14:16:02.056Z,1.27
2017-09-09T14:18:29.572Z,1.10
2017-09-09T14:20:57.856Z,1.27
2017-09-09T14:23:25.356Z,0.90
2017-09-09T14:25:52.890Z,1.17
2017-09-09T14:28:20.410Z,1.03
2017-09-09T14:30:48.847Z,1.30
2017-09-09T14:33:16.366Z,1.10
2017-09-09T14:35:43.887Z,1.33
2017-09-09T14:38:11.426Z,0.90
2017-09-09T14:40:38.928Z,1.20
2017-09-09T14:43:07.229Z,2.40
2017-09-09T14:45:34.750Z,3.63
2017-09-09T14:48:03.056Z,1.20
2017-09-09T14:50:30.589Z,1.20
2017-09-09T14:52:58.866Z,3.23
2017-09-09T14:55:27.171Z,1.70
2017-09-09T14:57:54.680Z,3.33
2017-09-09T15:00:22.990Z,2.13
2017-09-09T15:02:50.492Z,4.30
2017-09-09T15:05:17.988Z,1.57
2017-09-09T15:07:45.529Z,1.37
2017-09-09T15:10:13.059Z,5.63
2017-09-09T15:12:40.819Z,1.63
2017-09-09T15:15:08.320Z,3.53
2017-09-09T15:17:35.851Z,3.10
2017-09-09T15:20:03.371Z,1.57
2017-09-09T15:22:30.891Z,2.70
2017-09-09T15:24:58.417Z,3.63
2017-09-09T15:27:25.948Z,2.53
2017-09-09T15:29:53.453Z,1.50
2017-09-09T15:32:20.951Z,1.57
2017-09-09T15:34:49.249Z,1.60
2017-09-09T15:37:16.766Z,1.40
2017-09-09T15:39:44.306Z,1.30
2017-09-09T15:42:11.834Z,1.43
2017-09-09T15:44:39.360Z,1.53
2017-09-09T15:47:07.642Z,1.73
2017-09-09T15:49:35.164Z,1.70
2017-09-09T15:52:03.429Z,2.07
2017-09-09T15:54:30.986Z,1.60
2017-09-09T15:56:58.488Z,2.77
2017-09-09T15:59:26.029Z,2.40
2017-09-09T16:01:53.569Z,1.50
2017-09-09T16:04:21.081Z,1.83
2017-09-09T16:06:48.603Z,2.40
2017-09-09T16:09:16.890Z,1.40
2017-09-09T16:11:45.170Z,1.60
2017-09-09T16:14:13.487Z,1.47
2017-09-09T16:16:40.988Z,1.30
2017-09-09T16:19:08.522Z,1.37
2017-09-09T16:21:36.039Z,1.77
2017-09-09T16:24:03.578Z,1.30
2017-09-09T16:26:31.893Z,2.87
2017-09-09T16:28:59.396Z,1.13
2017-09-09T16:31:27.014Z,4.13
2017-09-09T16:33:54.526Z,1.47
2017-09-09T16:36:22.838Z,1.27
2017-09-09T16:38:50.331Z,1.30
2017-09-09T16:41:17.849Z,1.70
2017-09-09T16:43:45.367Z,1.60
2017-09-09T16:46:12.878Z,2.93
2017-09-09T16:48:40.509Z,1.50
2017-09-09T16:51:08.790Z,2.27
2017-09-09T16:53:37.094Z,1.43
2017-09-09T16:56:04.653Z,1.50
2017-09-09T16:58:32.151Z,1.53
2017-09-09T17:00:59.690Z,1.50
2017-09-09T17:03:27.209Z,1.43
2017-09-09T17:05:54.742Z,1.67
2017-09-09T17:08:23.007Z,1.70
2017-09-09T17:10:50.531Z,2.20
2017-09-09T17:13:18.043Z,1.60
2017-09-09T17:15:46.318Z,1.90
2017-09-09T17:18:14.622Z,1.70
2017-09-09T17:20:42.119Z,1.90
2017-09-09T17:23:09.639Z,1.60
2017-09-09T17:25:37.135Z,2.00
2017-09-09T17:28:04.668Z,2.03
2017-09-09T17:30:32.178Z,1.80
2017-09-09T17:33:00.454Z,2.03
2017-09-09T17:35:28.739Z,3.20
2017-09-09T17:37:57.013Z,2.30
2017-09-09T17:40:25.337Z,2.20
2017-09-09T17:42:52.850Z,3.13
2017-09-09T17:45:21.115Z,3.77
2017-09-09T17:47:49.437Z,2.57
2017-09-09T17:50:16.931Z,2.60
2017-09-09T17:52:44.471Z,4.23
2017-09-09T17:55:11.982Z,2.27
2017-09-09T17:57:40.262Z,3.10
2017-09-09T18:00:08.544Z,2.63
2017-09-09T18:02:36.057Z,3.63
2017-09-09T18:05:03.598Z,2.50
2017-09-09T18:07:31.106Z,3.60
2017-09-09T18:09:59.416Z,6.63
2017-09-09T18:12:26.940Z,3.27
2017-09-09T18:14:55.205Z,3.30
2017-09-09T18:17:23.492Z,3.90
2017-09-09T18:19:51.760Z,4.40
2017-09-09T18:22:20.055Z,5.60
2017-09-09T18:24:47.571Z,5.63
2017-09-09T18:27:15.067Z,5.40
2017-09-09T18:29:42.587Z,3.10
2017-09-09T18:32:10.098Z,4.27
2017-09-09T18:34:37.625Z,5.63
2017-09-09T18:37:05.896Z,4.27
2017-09-09T18:39:33.437Z,7.87
2017-09-09T18:42:00.943Z,5.67
2017-09-09T18:44:28.444Z,5.00
2017-09-09T18:46:55.977Z,4.60
2017-09-09T18:49:23.486Z,5.53
2017-09-09T18:51:51.025Z,11.03
2017-09-09T18:54:18.551Z,5.27
2017-09-09T18:56:46.052Z,3.77
2017-09-09T18:59:13.575Z,9.53
2017-09-09T19:01:41.094Z,4.00
2017-09-09T19:04:08.639Z,4.33
2017-09-09T19:06:36.919Z,4.90
2017-09-09T19:09:05.226Z,6.10
2017-09-09T19:11:32.742Z,5.67
2017-09-09T19:14:00.291Z,6.30
2017-09-09T19:16:28.578Z,5.90
2017-09-09T19:18:56.090Z,5.20
2017-09-09T19:21:23.626Z,21.57
2017-09-09T19:23:51.151Z,8.90
2017-09-09T19:26:19.480Z,6.83
2017-09-09T19:28:46.975Z,6.87
2017-09-09T19:31:14.501Z,6.40
2017-09-09T19:33:42.034Z,7.43
2017-09-09T19:36:10.297Z,7.10
2017-09-09T19:38:38.610Z,6.17
2017-09-09T19:41:06.131Z,6.77
2017-09-09T19:43:34.445Z,6.00
2017-09-09T19:46:01.959Z,8.23
2017-09-09T19:48:30.225Z,6.63
2017-09-09T19:50:57.752Z,5.57
2017-09-09T19:53:25.266Z,8.17
2017-09-09T19:55:53.551Z,11.93
2017-09-09T19:58:21.048Z,5.20
2017-09-09T20:00:48.578Z,5.37
2017-09-09T20:03:16.095Z,8.83
2017-09-09T20:05:43.611Z,9.17
2017-09-09T20:08:11.162Z,11.87
2017-09-09T20:10:38.677Z,9.27
2017-09-09T20:13:06.973Z,10.03
2017-09-09T20:15:34.557Z,10.40
2017-09-09T20:18:02.076Z,13.00
2017-09-09T20:20:29.676Z,12.53
2017-09-09T20:22:57.193Z,11.27
2017-09-09T20:25:25.500Z,14.57
2017-09-09T20:27:53.023Z,14.30
2017-09-09T20:30:21.290Z,12.60
2017-09-09T20:32:48.816Z,18.00
2017-09-09T20:35:16.312Z,10.77
2017-09-09T20:37:43.835Z,14.10
2017-09-09T20:40:11.340Z,12.90
2017-09-09T20:42:39.629Z,16.47
2017-09-09T20:45:07.216Z,17.03
2017-09-09T20:47:34.743Z,21.20
2017-09-09T20:50:02.299Z,18.90
2017-09-09T20:52:30.590Z,25.43
2017-09-09T20:54:58.105Z,27.30
2017-09-09T20:57:25.726Z,31.00
2017-09-09T20:59:53.227Z,23.43
2017-09-09T21:02:20.778Z,38.03
2017-09-09T21:04:49.081Z,25.10
2017-09-09T21:07:17.352Z,29.40
2017-09-09T21:09:45.666Z,29.57
2017-09-09T21:12:13.172Z,30.17
2017-09-09T21:14:41.489Z,23.10
2017-09-09T21:17:09.006Z,21.33
2017-09-09T21:19:36.525Z,19.23
2017-09-09T21:22:04.062Z,21.03
2017-09-09T21:24:31.582Z,21.20
2017-09-09T21:26:59.138Z,23.77
2017-09-09T21:29:26.763Z,20.63
2017-09-09T21:31:54.267Z,21.10
2017-09-09T21:34:21.878Z,18.13
2017-09-09T21:36:49.394Z,11.60
2017-09-09T21:39:17.692Z,12.53
2017-09-09T21:41:45.218Z,11.57
2017-09-09T21:44:12.742Z,16.33
2017-09-09T21:46:40.290Z,17.60
2017-09-09T21:49:07.810Z,15.40
2017-09-09T21:51:36.103Z,11.23
2017-09-09T21:54:03.627Z,10.30
2017-09-09T21:56:31.133Z,10.10
2017-09-09T21:58:58.670Z,9.20
2017-09-09T22:01:26.182Z,7.47
2017-09-09T22:03:53.725Z,11.90
2017-09-09T22:06:21.254Z,8.03
2017-09-09T22:08:48.774Z,10.97
2017-09-09T22:11:16.301Z,6.60
2017-09-09T22:13:43.815Z,7.93
2017-09-09T22:16:12.126Z,7.30
2017-09-09T22:18:39.637Z,8.40
2017-09-09T22:21:07.904Z,12.13
2017-09-09T22:23:35.428Z,6.27
2017-09-09T22:26:02.923Z,6.87
2017-09-09T22:28:30.460Z,9.67
2017-09-09T22:30:57.964Z,5.20
2017-09-09T22:33:25.472Z,5.10
2017-09-09T22:35:52.991Z,5.33
2017-09-09T22:38:20.514Z,5.50
2017-09-09T22:40:48.070Z,4.87
2017-09-09T22:43:16.349Z,6.67
2017-09-09T22:45:45.378Z,6.17
2017-09-09T22:48:12.900Z,7.87
2017-09-09T22:50:40.404Z,5.53
2017-09-09T22:53:07.939Z,6.03
2017-09-09T22:55:36.207Z,6.70
2017-09-09T22:58:04.486Z,9.23
2017-09-09T23:00:32.790Z,7.60
2017-09-09T23:03:00.307Z,8.97
2017-09-09T23:05:27.851Z,10.97
2017-09-09T23:07:55.376Z,5.83
2017-09-09T23:10:22.926Z,6.70
2017-09-09T23:12:50.494Z,5.70
2017-09-09T23:15:17.991Z,7.50
2017-09-09T23:17:46.294Z,7.30
2017-09-09T23:20:14.568Z,10.73
2017-09-09T23:22:42.860Z,9.70
2017-09-09T23:25:10.359Z,7.37
2017-09-09T23:27:37.879Z,6.13
2017-09-09T23:30:05.400Z,5.90
2017-09-09T23:32:33.746Z,7.30
2017-09-09T23:35:01.243Z,6.23
2017-09-09T23:37:29.526Z,7.90
2017-09-09T23:39:57.815Z,7.60
2017-09-09T23:42:25.329Z,10.27
2017-09-09T23:44:52.847Z,5.73
2017-09-09T23:47:20.352Z,11.83
2017-09-09T23:49:47.880Z,5.30
2017-09-09T23:52:15.436Z,8.00
2017-09-09T23:54:42.947Z,8.13
2017-09-09T23:57:11.236Z,7.13
2017-09-09T23:59:39.498Z,11.20
